createdAt,value
2023-04-07T00:00:19.547Z,31.70
2023-04-07T00:01:19.544Z,30.30
2023-04-07T00:02:19.769Z,31.70
2023-04-07T00:03:19.699Z,30.60
2023-04-07T00:04:19.653Z,31.20
2023-04-07T00:05:19.533Z,31.90
2023-04-07T00:06:19.536Z,31.30
2023-04-07T00:07:19.518Z,31.50
2023-04-07T00:08:19.515Z,30.50
2023-04-07T00:09:19.575Z,31.20
2023-04-07T00:10:19.501Z,30.50
2023-04-07T00:11:19.493Z,31.20
2023-04-07T00:12:19.489Z,31.20
2023-04-07T00:13:19.482Z,30.50
2023-04-07T00:14:19.487Z,31.70
2023-04-07T00:15:19.473Z,31.60
2023-04-07T00:16:19.604Z,29.60
2023-04-07T00:17:19.465Z,28.80
2023-04-07T00:18:19.460Z,32.10
2023-04-07T00:19:19.453Z,32.30
2023-04-07T00:20:19.449Z,32.50
2023-04-07T00:21:19.453Z,31.40
2023-04-07T00:22:19.442Z,31.40
2023-04-07T00:23:19.435Z,30.90
2023-04-07T00:24:30.930Z,31.90
2023-04-07T00:25:19.446Z,31.30
2023-04-07T00:26:19.420Z,30.80
2023-04-07T00:27:19.423Z,30.90
2023-04-07T00:28:19.419Z,31.10
2023-04-07T00:29:19.406Z,31.20
2023-04-07T00:30:19.400Z,31.70
2023-04-07T00:31:19.405Z,30.50
2023-04-07T00:32:19.390Z,30.80
2023-04-07T00:33:19.417Z,31.50
2023-04-07T00:34:19.383Z,31.10
2023-04-07T00:35:19.383Z,29.50
2023-04-07T00:36:19.372Z,31.40
2023-04-07T00:37:19.408Z,30.50
2023-04-07T00:38:19.370Z,30.60
2023-04-07T00:39:19.357Z,30.90
2023-04-07T00:40:19.351Z,30.00
2023-04-07T00:41:19.364Z,30.40
2023-04-07T00:42:19.340Z,31.10
2023-04-07T00:43:19.338Z,30.60
2023-04-07T00:44:19.332Z,29.70
2023-04-07T00:45:19.322Z,30.40
2023-04-07T00:46:19.547Z,30.40
2023-04-07T00:47:19.316Z,30.80
2023-04-07T00:48:19.311Z,29.20
2023-04-07T00:49:19.306Z,28.20
2023-04-07T00:50:19.304Z,28.10
2023-04-07T00:51:19.294Z,29.90
2023-04-07T00:52:19.288Z,28.20
2023-04-07T00:53:19.287Z,29.40
2023-04-07T00:54:19.282Z,32.00
2023-04-07T00:55:19.311Z,30.30
2023-04-07T00:56:19.288Z,31.10
2023-04-07T00:57:19.342Z,31.20
2023-04-07T00:58:19.305Z,31.60
2023-04-07T00:59:19.337Z,30.80
2023-04-07T01:00:19.354Z,31.80
2023-04-07T01:01:19.333Z,31.70
2023-04-07T01:02:19.324Z,32.00
2023-04-07T01:03:19.543Z,31.70
2023-04-07T01:04:19.567Z,31.30
2023-04-07T01:05:19.338Z,31.70
2023-04-07T01:06:19.222Z,32.50
2023-04-07T01:07:19.220Z,31.50
2023-04-07T01:08:19.233Z,32.90
2023-04-07T01:09:19.209Z,32.90
2023-04-07T01:10:19.201Z,32.20
2023-04-07T01:11:19.194Z,33.80
2023-04-07T01:12:19.193Z,32.70
2023-04-07T01:13:19.214Z,33.60
2023-04-07T01:14:19.182Z,33.80
2023-04-07T01:15:19.174Z,34.50
2023-04-07T01:16:19.176Z,33.80
2023-04-07T01:17:19.175Z,33.10
2023-04-07T01:18:19.172Z,33.40
2023-04-07T01:19:19.159Z,33.10
2023-04-07T01:20:19.160Z,30.30
2023-04-07T01:21:19.148Z,30.00
2023-04-07T01:22:19.144Z,28.60
2023-04-07T01:23:19.137Z,29.70
2023-04-07T01:24:19.136Z,30.20
2023-04-07T01:25:19.159Z,29.90
2023-04-07T01:26:19.145Z,34.10
2023-04-07T01:27:19.116Z,34.40
2023-04-07T01:28:19.117Z,33.20
2023-04-07T01:29:19.135Z,34.20
2023-04-07T01:30:19.109Z,33.40
2023-04-07T01:31:19.101Z,33.50
2023-04-07T01:32:19.097Z,33.10
2023-04-07T01:33:19.086Z,33.30
2023-04-07T01:34:19.087Z,33.50
2023-04-07T01:35:19.077Z,35.20
2023-04-07T01:36:19.074Z,33.30
2023-04-07T01:37:19.122Z,30.60
2023-04-07T01:38:19.093Z,31.10
2023-04-07T01:39:19.060Z,33.20
2023-04-07T01:40:19.057Z,30.30
2023-04-07T01:41:19.052Z,33.20
2023-04-07T01:42:19.048Z,34.20
2023-04-07T01:43:19.050Z,34.10
2023-04-07T01:44:19.042Z,32.00
2023-04-07T01:45:19.058Z,34.30
2023-04-07T01:46:19.033Z,32.60
2023-04-07T01:47:19.595Z,33.50
2023-04-07T01:48:19.027Z,33.40
2023-04-07T01:49:19.023Z,34.10
2023-04-07T01:50:19.013Z,33.60
2023-04-07T01:51:19.059Z,32.80
2023-04-07T01:52:19.002Z,34.50
2023-04-07T01:53:19.007Z,33.90
2023-04-07T01:54:19.019Z,32.10
2023-04-07T01:55:18.988Z,31.70
2023-04-07T01:56:19.024Z,32.00
2023-04-07T01:57:18.977Z,28.20
2023-04-07T01:58:18.977Z,28.50
2023-04-07T01:59:18.967Z,30.10
2023-04-07T02:00:18.965Z,33.30
2023-04-07T02:01:19.042Z,34.30
2023-04-07T02:02:19.030Z,35.20
2023-04-07T02:03:19.119Z,35.10
2023-04-07T02:04:18.953Z,33.40
2023-04-07T02:05:18.942Z,34.50
2023-04-07T02:06:18.936Z,33.80
2023-04-07T02:07:18.931Z,32.40
2023-04-07T02:08:18.925Z,30.20
2023-04-07T02:09:18.924Z,32.50
2023-04-07T02:10:18.916Z,29.50
2023-04-07T02:11:18.914Z,31.10
2023-04-07T02:12:18.911Z,31.10
2023-04-07T02:13:18.924Z,31.40
2023-04-07T02:14:18.908Z,33.30
2023-04-07T02:15:18.913Z,33.70
2023-04-07T02:16:18.946Z,35.90
2023-04-07T02:17:18.944Z,33.90
2023-04-07T02:18:18.883Z,35.20
2023-04-07T02:19:18.880Z,35.10
2023-04-07T02:20:18.872Z,31.80
2023-04-07T02:21:18.863Z,31.90
2023-04-07T02:22:18.859Z,32.40
2023-04-07T02:23:18.853Z,32.10
2023-04-07T02:24:18.850Z,32.40
2023-04-07T02:25:18.845Z,36.30
2023-04-07T02:26:18.858Z,37.20
2023-04-07T02:27:18.848Z,35.20
2023-04-07T02:28:18.836Z,31.80
2023-04-07T02:29:18.826Z,35.00
2023-04-07T02:30:18.821Z,33.90
2023-04-07T02:31:18.862Z,32.40
2023-04-07T02:32:18.812Z,32.90
2023-04-07T02:33:18.829Z,30.70
2023-04-07T02:34:18.803Z,32.20
2023-04-07T02:35:18.801Z,36.20
2023-04-07T02:36:18.800Z,34.50
2023-04-07T02:37:18.786Z,36.20
2023-04-07T02:38:18.808Z,37.10
2023-04-07T02:39:18.792Z,33.50
2023-04-07T02:40:18.776Z,34.30
2023-04-07T02:41:18.770Z,35.70
2023-04-07T02:42:18.767Z,34.20
2023-04-07T02:43:18.859Z,35.60
2023-04-07T02:44:18.756Z,36.50
2023-04-07T02:45:18.754Z,37.20
2023-04-07T02:46:18.777Z,38.40
2023-04-07T02:47:18.757Z,40.60
2023-04-07T02:48:18.737Z,42.30
2023-04-07T02:49:18.756Z,45.50
2023-04-07T02:50:18.732Z,45.80
2023-04-07T02:51:18.727Z,47.40
2023-04-07T02:52:18.714Z,47.60
2023-04-07T02:53:18.713Z,44.60
2023-04-07T02:54:18.710Z,44.00
2023-04-07T02:55:18.701Z,49.00
2023-04-07T02:56:18.695Z,48.00
2023-04-07T02:57:18.689Z,51.50
2023-04-07T02:58:18.693Z,52.00
2023-04-07T02:59:18.688Z,55.60
2023-04-07T03:00:18.678Z,56.90
2023-04-07T03:01:18.736Z,58.30
2023-04-07T03:02:18.759Z,56.50
2023-04-07T03:03:18.781Z,60.70
2023-04-07T03:04:18.840Z,60.10
2023-04-07T03:05:18.676Z,65.70
2023-04-07T03:06:18.651Z,68.60
2023-04-07T03:07:18.643Z,69.30
2023-04-07T03:08:18.652Z,72.20
2023-04-07T03:09:18.634Z,70.20
2023-04-07T03:10:18.652Z,70.40
2023-04-07T03:11:18.623Z,71.30
2023-04-07T03:12:18.619Z,72.10
2023-04-07T03:13:18.619Z,74.90
2023-04-07T03:14:18.612Z,75.20
2023-04-07T03:15:18.969Z,77.00
2023-04-07T03:16:18.638Z,75.80
2023-04-07T03:17:18.740Z,76.80
2023-04-07T03:18:18.593Z,82.30
2023-04-07T03:19:18.586Z,77.50
2023-04-07T03:20:18.582Z,82.20
2023-04-07T03:21:18.606Z,77.40
2023-04-07T03:22:18.579Z,80.10
2023-04-07T03:23:18.570Z,82.80
2023-04-07T03:24:18.596Z,78.10
2023-04-07T03:25:18.557Z,77.40
2023-04-07T03:26:18.560Z,81.20
2023-04-07T03:27:18.547Z,78.00
2023-04-07T03:28:18.548Z,84.10
2023-04-07T03:29:18.547Z,80.70
2023-04-07T03:30:18.542Z,81.20
2023-04-07T03:31:18.617Z,78.50
2023-04-07T03:32:18.538Z,77.80
2023-04-07T03:33:18.535Z,77.60
2023-04-07T03:34:18.534Z,76.30
2023-04-07T03:35:18.523Z,74.40
2023-04-07T03:36:18.539Z,74.50
2023-04-07T03:37:18.556Z,74.20
2023-04-07T03:38:18.527Z,71.70
2023-04-07T03:39:18.492Z,70.90
2023-04-07T03:40:18.490Z,74.20
2023-04-07T03:41:18.480Z,72.70
2023-04-07T03:42:18.481Z,72.80
2023-04-07T03:43:18.473Z,70.30
2023-04-07T03:44:18.468Z,69.60
2023-04-07T03:45:18.485Z,69.00
2023-04-07T03:46:18.487Z,68.90
2023-04-07T03:47:18.457Z,69.90
2023-04-07T03:48:18.470Z,67.00
2023-04-07T03:49:18.442Z,63.40
2023-04-07T03:50:18.438Z,67.40
2023-04-07T03:51:18.431Z,67.60
2023-04-07T03:52:18.435Z,63.80
2023-04-07T03:53:18.445Z,64.70
2023-04-07T03:54:18.422Z,67.70
2023-04-07T03:55:18.412Z,61.10
2023-04-07T03:56:18.415Z,60.60
2023-04-07T03:57:18.413Z,62.90
2023-04-07T03:58:18.449Z,59.90
2023-04-07T03:59:18.404Z,58.40
2023-04-07T04:00:18.411Z,60.00
2023-04-07T04:01:18.397Z,59.70
2023-04-07T04:02:18.516Z,59.90
2023-04-07T04:03:18.617Z,58.40
2023-04-07T04:04:18.429Z,60.60
2023-04-07T04:05:18.361Z,61.70
2023-04-07T04:06:18.358Z,61.50
2023-04-07T04:07:18.354Z,62.50
2023-04-07T04:08:18.353Z,61.50
2023-04-07T04:09:18.364Z,61.40
2023-04-07T04:10:18.336Z,60.70
2023-04-07T04:11:18.342Z,61.00
2023-04-07T04:12:18.328Z,62.50
2023-04-07T04:13:18.327Z,63.40
2023-04-07T04:14:18.318Z,64.20
2023-04-07T04:15:18.318Z,62.20
2023-04-07T04:16:18.340Z,62.20
2023-04-07T04:17:18.306Z,62.80
2023-04-07T04:18:18.297Z,63.90
2023-04-07T04:19:18.293Z,61.30
2023-04-07T04:20:18.287Z,60.40
2023-04-07T04:21:18.288Z,67.10
2023-04-07T04:22:18.281Z,60.00
2023-04-07T04:23:18.277Z,64.00
2023-04-07T04:24:18.274Z,60.10
2023-04-07T04:25:18.280Z,61.60
2023-04-07T04:26:18.255Z,62.00
2023-04-07T04:27:18.253Z,61.10
2023-04-07T04:28:18.247Z,64.10
2023-04-07T04:29:18.244Z,64.10
2023-04-07T04:30:18.251Z,65.60
2023-04-07T04:31:18.296Z,65.60
2023-04-07T04:32:18.236Z,66.30
2023-04-07T04:33:18.222Z,64.30
2023-04-07T04:34:18.217Z,62.10
2023-04-07T04:35:18.224Z,67.80
2023-04-07T04:36:18.243Z,67.50
2023-04-07T04:37:18.201Z,65.30
2023-04-07T04:38:18.195Z,64.40
2023-04-07T04:39:18.191Z,64.20
2023-04-07T04:40:18.184Z,63.40
2023-04-07T04:41:18.206Z,65.40
2023-04-07T04:42:18.175Z,66.40
2023-04-07T04:43:18.171Z,63.70
2023-04-07T04:44:18.178Z,67.70
2023-04-07T04:45:18.160Z,64.70
2023-04-07T04:46:18.157Z,67.20
2023-04-07T04:47:18.249Z,67.60
2023-04-07T04:48:18.147Z,65.40
2023-04-07T04:49:18.142Z,65.10
2023-04-07T04:50:18.148Z,67.20
2023-04-07T04:51:18.130Z,66.10
2023-04-07T04:52:18.390Z,66.20
2023-04-07T04:53:18.125Z,65.90
2023-04-07T04:54:18.117Z,62.90
2023-04-07T04:55:18.145Z,67.80
2023-04-07T04:56:18.105Z,70.20
2023-04-07T04:57:18.122Z,66.60
2023-04-07T04:58:18.094Z,72.00
2023-04-07T04:59:18.091Z,65.00
2023-04-07T05:00:18.083Z,64.10
2023-04-07T05:01:18.134Z,63.80
2023-04-07T05:02:18.171Z,64.20
2023-04-07T05:03:18.297Z,62.30
2023-04-07T05:04:18.250Z,62.10
2023-04-07T05:05:18.087Z,60.60
2023-04-07T05:06:18.061Z,60.60
2023-04-07T05:07:18.083Z,60.10
2023-04-07T05:08:18.044Z,68.40
2023-04-07T05:09:18.043Z,59.10
2023-04-07T05:10:18.036Z,60.10
2023-04-07T05:11:18.031Z,58.50
2023-04-07T05:12:18.028Z,58.20
2023-04-07T05:13:18.045Z,57.80
2023-04-07T05:14:18.011Z,55.30
2023-04-07T05:15:18.006Z,58.00
2023-04-07T05:16:18.073Z,57.20
2023-04-07T05:17:18.004Z,58.30
2023-04-07T05:18:17.994Z,54.40
2023-04-07T05:19:18.004Z,53.10
2023-04-07T05:20:17.979Z,52.80
2023-04-07T05:21:17.982Z,54.60
2023-04-07T05:22:17.996Z,53.80
2023-04-07T05:23:17.966Z,51.50
2023-04-07T05:24:17.960Z,52.40
2023-04-07T05:25:17.972Z,53.20
2023-04-07T05:26:17.952Z,49.50
2023-04-07T05:27:17.948Z,51.60
2023-04-07T05:28:17.938Z,51.30
2023-04-07T05:29:17.956Z,50.90
2023-04-07T05:30:17.933Z,51.60
2023-04-07T05:31:17.994Z,48.00
2023-04-07T05:32:17.919Z,49.00
2023-04-07T05:33:17.916Z,49.20
2023-04-07T05:34:17.914Z,44.70
2023-04-07T05:35:17.910Z,48.60
2023-04-07T05:36:17.907Z,47.90
2023-04-07T05:37:17.898Z,43.90
2023-04-07T05:38:17.907Z,47.80
2023-04-07T05:39:17.891Z,47.40
2023-04-07T05:40:17.888Z,47.10
2023-04-07T05:41:17.884Z,51.30
2023-04-07T05:42:17.878Z,46.10
2023-04-07T05:43:17.868Z,47.70
2023-04-07T05:44:17.858Z,48.50
2023-04-07T05:45:17.882Z,48.20
2023-04-07T05:46:17.882Z,48.90
2023-04-07T05:47:17.842Z,47.50
2023-04-07T05:48:17.836Z,45.80
2023-04-07T05:49:20.009Z,48.80
2023-04-07T05:50:17.829Z,47.30
2023-04-07T05:51:17.826Z,46.00
2023-04-07T05:52:17.826Z,45.70
2023-04-07T05:53:17.847Z,50.00
2023-04-07T05:54:17.811Z,47.30
2023-04-07T05:55:17.807Z,45.00
2023-04-07T05:56:17.801Z,45.40
2023-04-07T05:57:17.793Z,45.80
2023-04-07T05:58:17.785Z,46.70
2023-04-07T05:59:17.797Z,45.80
2023-04-07T06:00:17.778Z,42.80
2023-04-07T06:01:17.789Z,42.00
2023-04-07T06:02:17.928Z,42.10
2023-04-07T06:03:17.804Z,44.00
2023-04-07T06:04:17.758Z,41.40
2023-04-07T06:05:17.801Z,42.70
2023-04-07T06:06:17.745Z,42.80
2023-04-07T06:07:17.749Z,45.90
2023-04-07T06:08:17.732Z,46.20
2023-04-07T06:09:17.738Z,44.00
2023-04-07T06:10:17.725Z,39.50
2023-04-07T06:11:17.733Z,41.40
2023-04-07T06:12:17.711Z,40.60
2023-04-07T06:13:17.707Z,42.10
2023-04-07T06:14:17.702Z,39.10
2023-04-07T06:15:17.703Z,42.40
2023-04-07T06:16:19.418Z,42.10
2023-04-07T06:17:17.716Z,42.60
2023-04-07T06:18:17.681Z,43.60
2023-04-07T06:19:17.684Z,39.50
2023-04-07T06:20:17.670Z,40.00
2023-04-07T06:21:17.667Z,40.40
2023-04-07T06:22:17.661Z,40.30
2023-04-07T06:23:17.656Z,43.30
2023-04-07T06:24:17.654Z,40.20
2023-04-07T06:25:17.652Z,39.80
2023-04-07T06:26:17.651Z,41.20
2023-04-07T06:27:17.641Z,39.50
2023-04-07T06:28:17.629Z,40.10
2023-04-07T06:29:17.630Z,41.20
2023-04-07T06:30:17.627Z,40.20
2023-04-07T06:31:17.663Z,39.90
2023-04-07T06:32:17.618Z,41.80
2023-04-07T06:33:17.630Z,39.90
2023-04-07T06:34:17.597Z,41.40
2023-04-07T06:35:17.592Z,43.30
2023-04-07T06:36:17.591Z,40.20
2023-04-07T06:37:17.632Z,41.70
2023-04-07T06:38:17.577Z,41.70
2023-04-07T06:39:17.575Z,42.60
2023-04-07T06:40:17.565Z,42.60
2023-04-07T06:41:17.565Z,40.20
2023-04-07T06:42:17.563Z,44.70
2023-04-07T06:43:17.571Z,39.70
2023-04-07T06:44:17.581Z,39.30
2023-04-07T06:45:17.563Z,40.80
2023-04-07T06:46:17.626Z,42.90
2023-04-07T06:47:17.532Z,40.20
2023-04-07T06:48:17.524Z,41.60
2023-04-07T06:49:17.562Z,43.40
2023-04-07T06:50:17.518Z,39.60
2023-04-07T06:51:17.509Z,41.40
2023-04-07T06:52:17.512Z,44.50
2023-04-07T06:53:17.500Z,42.60
2023-04-07T06:54:17.494Z,42.50
2023-04-07T06:55:17.492Z,41.00
2023-04-07T06:56:17.492Z,42.30
2023-04-07T06:57:17.691Z,39.90
2023-04-07T06:58:17.484Z,39.90
2023-04-07T06:59:17.470Z,42.90
2023-04-07T07:00:17.469Z,40.90
2023-04-07T07:01:17.488Z,39.70
2023-04-07T07:02:17.693Z,41.00
2023-04-07T07:03:17.586Z,39.20
2023-04-07T07:04:17.515Z,40.60
2023-04-07T07:05:17.462Z,39.80
2023-04-07T07:06:17.436Z,41.10
2023-04-07T07:07:17.428Z,44.60
2023-04-07T07:08:17.422Z,40.50
2023-04-07T07:09:17.421Z,43.50
2023-04-07T07:10:17.424Z,41.00
2023-04-07T07:11:17.412Z,41.20
2023-04-07T07:12:17.413Z,41.10
2023-04-07T07:13:17.397Z,40.40
2023-04-07T07:14:17.390Z,40.00
2023-04-07T07:15:17.386Z,38.90
2023-04-07T07:16:17.416Z,40.00
2023-04-07T07:17:17.378Z,39.20
2023-04-07T07:18:17.373Z,40.00
2023-04-07T07:19:17.375Z,40.30
2023-04-07T07:20:17.363Z,39.40
2023-04-07T07:21:17.377Z,39.50
2023-04-07T07:22:17.351Z,39.00
2023-04-07T07:23:17.350Z,41.80
2023-04-07T07:24:17.343Z,38.80
2023-04-07T07:25:17.345Z,39.40
2023-04-07T07:26:17.329Z,40.80
2023-04-07T07:27:17.328Z,38.20
2023-04-07T07:28:17.333Z,38.40
2023-04-07T07:29:17.318Z,37.40
2023-04-07T07:30:17.309Z,36.60
2023-04-07T07:31:17.355Z,38.60
2023-04-07T07:32:17.298Z,37.20
2023-04-07T07:33:17.293Z,39.20
2023-04-07T07:34:17.286Z,35.50
2023-04-07T07:35:17.305Z,36.80
2023-04-07T07:36:17.313Z,36.50
2023-04-07T07:37:17.304Z,37.10
2023-04-07T07:38:17.275Z,36.40
2023-04-07T07:39:17.264Z,35.70
2023-04-07T07:40:17.257Z,35.90
2023-04-07T07:42:17.245Z,36.00
2023-04-07T07:43:17.247Z,34.70
2023-04-07T07:44:17.237Z,35.00
2023-04-07T07:45:17.232Z,36.20
2023-04-07T07:46:17.285Z,35.60
2023-04-07T07:47:17.240Z,36.80
2023-04-07T07:48:17.215Z,34.70
2023-04-07T07:49:17.213Z,33.70
2023-04-07T07:50:17.206Z,32.50
2023-04-07T07:51:17.206Z,35.00
2023-04-07T07:52:17.199Z,36.20
2023-04-07T07:53:17.212Z,35.90
2023-04-07T07:54:17.189Z,34.20
2023-04-07T07:55:17.185Z,34.70
2023-04-07T07:56:17.178Z,36.50
2023-04-07T07:57:17.621Z,34.40
2023-04-07T07:58:17.170Z,36.60
2023-04-07T07:59:17.889Z,34.30
2023-04-07T08:00:17.159Z,35.60
2023-04-07T08:01:17.152Z,40.00
2023-04-07T08:02:17.237Z,38.40
2023-04-07T08:03:17.231Z,37.20
2023-04-07T08:04:17.219Z,40.10
2023-04-07T08:05:17.132Z,39.10
2023-04-07T08:06:17.135Z,38.90
2023-04-07T08:07:17.120Z,38.60
2023-04-07T08:08:17.124Z,40.00
2023-04-07T08:09:17.131Z,40.60
2023-04-07T08:10:17.105Z,40.00
2023-04-07T08:11:17.117Z,40.00
2023-04-07T08:12:17.117Z,40.10
2023-04-07T08:13:17.106Z,42.50
2023-04-07T08:14:17.092Z,40.30
2023-04-07T08:15:17.100Z,38.90
2023-04-07T08:16:17.213Z,38.20
2023-04-07T08:17:17.071Z,41.50
2023-04-07T08:18:17.067Z,40.30
2023-04-07T08:19:17.066Z,38.80
2023-04-07T08:20:17.063Z,39.40
2023-04-07T08:21:17.055Z,41.70
2023-04-07T08:22:17.047Z,39.10
2023-04-07T08:23:17.057Z,41.70
2023-04-07T08:24:17.039Z,41.00
2023-04-07T08:25:17.051Z,41.00
2023-04-07T08:26:17.028Z,40.30
2023-04-07T08:27:17.019Z,39.40
2023-04-07T08:28:17.018Z,37.80
2023-04-07T08:29:17.008Z,40.30
2023-04-07T08:30:17.022Z,41.20
2023-04-07T08:31:17.064Z,42.70
2023-04-07T08:32:17.000Z,40.10
2023-04-07T08:33:16.990Z,39.50
2023-04-07T08:34:16.998Z,39.20
2023-04-07T08:35:16.980Z,41.30
2023-04-07T08:36:17.010Z,40.90
2023-04-07T08:37:16.971Z,39.10
2023-04-07T08:38:16.969Z,38.50
2023-04-07T08:39:16.961Z,37.10
2023-04-07T08:40:16.958Z,39.30
2023-04-07T08:41:16.973Z,41.60
2023-04-07T08:42:16.960Z,42.00
2023-04-07T08:43:16.940Z,41.20
2023-04-07T08:44:16.942Z,41.60
2023-04-07T08:45:16.933Z,40.50
2023-04-07T08:46:16.955Z,40.40
2023-04-07T08:47:16.933Z,42.60
2023-04-07T08:48:16.918Z,43.80
2023-04-07T08:49:16.931Z,42.10
2023-04-07T08:50:16.915Z,40.90
2023-04-07T08:51:16.898Z,45.60
2023-04-07T08:52:16.902Z,42.60
2023-04-07T08:53:16.895Z,41.70
2023-04-07T08:54:16.887Z,42.60
2023-04-07T08:55:16.881Z,44.50
2023-04-07T08:56:16.897Z,45.10
2023-04-07T08:57:16.901Z,42.80
2023-04-07T08:58:16.879Z,44.40
2023-04-07T08:59:16.865Z,43.60
2023-04-07T09:00:16.864Z,48.00
2023-04-07T09:01:17.159Z,43.40
2023-04-07T09:02:16.861Z,42.50
2023-04-07T09:03:17.037Z,43.30
2023-04-07T09:04:16.894Z,44.40
2023-04-07T09:05:16.881Z,41.90
2023-04-07T09:06:16.831Z,43.70
2023-04-07T09:07:16.821Z,45.90
2023-04-07T09:08:16.817Z,41.40
2023-04-07T09:09:16.809Z,43.50
2023-04-07T09:10:16.807Z,43.30
2023-04-07T09:11:16.800Z,44.00
2023-04-07T09:12:16.797Z,44.30
2023-04-07T09:13:16.824Z,41.80
2023-04-07T09:14:16.788Z,42.60
2023-04-07T09:15:16.781Z,42.80
2023-04-07T09:16:16.788Z,43.20
2023-04-07T09:17:16.771Z,42.90
2023-04-07T09:18:16.917Z,41.30
2023-04-07T09:19:16.769Z,44.40
2023-04-07T09:20:16.764Z,43.80
2023-04-07T09:21:16.750Z,43.00
2023-04-07T09:22:16.753Z,45.60
2023-04-07T09:23:16.741Z,45.60
2023-04-07T09:24:16.741Z,41.70
2023-04-07T09:25:16.740Z,44.40
2023-04-07T09:26:16.726Z,44.50
2023-04-07T09:27:17.385Z,44.70
2023-04-07T09:28:16.716Z,42.00
2023-04-07T09:29:16.730Z,42.60
2023-04-07T09:30:16.715Z,43.50
2023-04-07T09:31:16.698Z,42.60
2023-04-07T09:32:16.712Z,45.80
2023-04-07T09:33:16.691Z,43.20
2023-04-07T09:34:16.690Z,46.70
2023-04-07T09:35:16.694Z,48.80
2023-04-07T09:36:16.769Z,47.10
2023-04-07T09:37:16.673Z,45.50
2023-04-07T09:38:16.670Z,43.00
2023-04-07T09:39:16.665Z,45.60
2023-04-07T09:40:16.659Z,46.20
2023-04-07T09:41:16.758Z,44.90
2023-04-07T09:42:16.654Z,42.60
2023-04-07T09:43:16.665Z,45.00
2023-04-07T09:44:16.649Z,44.10
2023-04-07T09:45:27.364Z,45.60
2023-04-07T09:46:16.682Z,48.80
2023-04-07T09:47:16.631Z,46.60
2023-04-07T09:48:16.619Z,45.80
2023-04-07T09:49:16.612Z,45.50
2023-04-07T09:50:16.632Z,45.70
2023-04-07T09:51:16.621Z,44.90
2023-04-07T09:52:16.607Z,49.00
2023-04-07T09:53:16.594Z,47.70
2023-04-07T09:54:16.595Z,42.20
2023-04-07T09:55:16.589Z,44.90
2023-04-07T09:56:16.583Z,47.90
2023-04-07T09:57:16.575Z,45.30
2023-04-07T09:58:16.641Z,49.70
2023-04-07T09:59:16.568Z,46.10
2023-04-07T10:00:16.564Z,45.80
2023-04-07T10:01:16.677Z,46.70
2023-04-07T10:03:16.606Z,47.60
2023-04-07T10:04:16.629Z,45.70
2023-04-07T10:05:16.560Z,44.50
2023-04-07T10:06:16.645Z,43.70
2023-04-07T10:07:16.531Z,42.70
2023-04-07T10:08:16.527Z,44.70
2023-04-07T10:09:16.525Z,43.70
2023-04-07T10:10:16.532Z,45.80
2023-04-07T10:11:16.521Z,48.30
2023-04-07T10:12:16.518Z,47.10
2023-04-07T10:13:16.525Z,50.60
2023-04-07T10:14:16.552Z,51.00
2023-04-07T10:15:16.502Z,51.00
2023-04-07T10:16:16.552Z,51.60
2023-04-07T10:17:16.504Z,56.30
2023-04-07T10:18:16.475Z,54.50
2023-04-07T10:19:16.492Z,53.70
2023-04-07T10:20:16.466Z,54.60
2023-04-07T10:21:16.476Z,54.40
2023-04-07T10:22:16.458Z,54.10
2023-04-07T10:23:16.450Z,52.90
2023-04-07T10:24:16.449Z,55.90
2023-04-07T10:25:16.523Z,59.20
2023-04-07T10:26:16.437Z,56.40
2023-04-07T10:27:16.442Z,59.40
2023-04-07T10:28:16.433Z,58.30
2023-04-07T10:29:16.427Z,58.70
2023-04-07T10:30:16.428Z,62.20
2023-04-07T10:31:16.450Z,63.00
2023-04-07T10:32:16.415Z,63.90
2023-04-07T10:33:16.427Z,59.50
2023-04-07T10:34:16.400Z,63.00
2023-04-07T10:35:16.401Z,65.90
2023-04-07T10:36:16.390Z,61.50
2023-04-07T10:37:16.383Z,64.30
2023-04-07T10:38:16.522Z,62.30
2023-04-07T10:39:16.373Z,61.20
2023-04-07T10:40:16.369Z,63.40
2023-04-07T10:41:16.363Z,63.90
2023-04-07T10:42:16.360Z,63.90
2023-04-07T10:43:16.355Z,59.30
2023-04-07T10:44:16.353Z,60.00
2023-04-07T10:45:16.348Z,63.10
2023-04-07T10:46:16.368Z,58.60
2023-04-07T10:47:16.351Z,61.40
2023-04-07T10:48:16.331Z,60.40
2023-04-07T10:49:18.565Z,59.90
2023-04-07T10:50:16.323Z,60.50
2023-04-07T10:51:16.320Z,60.20
2023-04-07T10:52:16.312Z,52.70
2023-04-07T10:53:16.333Z,56.00
2023-04-07T10:54:16.309Z,54.80
2023-04-07T10:55:16.301Z,51.30
2023-04-07T10:56:16.293Z,52.10
2023-04-07T10:57:16.293Z,54.90
2023-04-07T10:58:16.288Z,49.60
2023-04-07T10:59:16.353Z,49.40
2023-04-07T11:00:16.301Z,51.10
2023-04-07T11:01:16.368Z,50.30
2023-04-07T11:02:16.716Z,51.80
2023-04-07T11:03:16.427Z,49.40
2023-04-07T11:04:16.349Z,49.70
2023-04-07T11:05:16.269Z,50.10
2023-04-07T11:06:16.269Z,49.40
2023-04-07T11:07:16.238Z,46.50
2023-04-07T11:08:16.236Z,48.90
2023-04-07T11:09:16.227Z,46.50
2023-04-07T11:10:16.306Z,48.20
2023-04-07T11:11:16.218Z,42.20
2023-04-07T11:12:16.214Z,40.40
2023-04-07T11:13:16.208Z,41.40
2023-04-07T11:14:16.213Z,40.30
2023-04-07T11:15:16.200Z,41.00
2023-04-07T11:16:16.233Z,40.80
2023-04-07T11:17:16.192Z,38.30
2023-04-07T11:18:16.194Z,40.00
2023-04-07T11:19:16.200Z,40.80
2023-04-07T11:20:16.230Z,37.50
2023-04-07T11:21:16.190Z,39.10
2023-04-07T11:22:28.549Z,39.90
2023-04-07T11:23:16.160Z,38.10
2023-04-07T11:24:16.159Z,40.00
2023-04-07T11:25:16.151Z,36.20
2023-04-07T11:26:16.185Z,40.20
2023-04-07T11:27:16.143Z,39.30
2023-04-07T11:28:16.146Z,40.40
2023-04-07T11:29:16.133Z,37.40
2023-04-07T11:30:16.154Z,39.40
2023-04-07T11:31:16.228Z,40.00
2023-04-07T11:32:16.122Z,37.70
2023-04-07T11:33:16.112Z,38.80
2023-04-07T11:34:16.110Z,36.50
2023-04-07T11:35:16.106Z,36.10
2023-04-07T11:36:16.170Z,34.60
2023-04-07T11:37:16.121Z,36.30
2023-04-07T11:38:16.096Z,36.30
2023-04-07T11:39:16.084Z,37.50
2023-04-07T11:40:16.083Z,34.70
2023-04-07T11:41:16.072Z,34.30
2023-04-07T11:42:16.072Z,34.00
2023-04-07T11:43:16.071Z,35.50
2023-04-07T11:44:16.068Z,35.90
2023-04-07T11:45:16.056Z,33.30
2023-04-07T11:46:16.119Z,33.80
2023-04-07T11:47:16.047Z,34.00
2023-04-07T11:48:16.044Z,31.50
2023-04-07T11:49:16.035Z,32.10
2023-04-07T11:50:16.109Z,31.40
2023-04-07T11:51:16.027Z,34.00
2023-04-07T11:52:16.025Z,33.30
2023-04-07T11:53:16.053Z,31.80
2023-04-07T11:54:16.016Z,31.40
2023-04-07T11:55:16.010Z,32.10
2023-04-07T11:56:16.007Z,30.10
2023-04-07T11:57:16.000Z,29.70
2023-04-07T11:58:15.997Z,31.10
2023-04-07T11:59:16.009Z,30.10
2023-04-07T12:00:15.987Z,28.90
2023-04-07T12:01:15.995Z,26.40
2023-04-07T12:02:16.088Z,26.50
2023-04-07T12:03:16.350Z,28.20
2023-04-07T12:04:16.198Z,28.30
2023-04-07T12:05:16.093Z,27.80
2023-04-07T12:06:15.960Z,27.30
2023-04-07T12:07:15.954Z,26.00
2023-04-07T12:08:15.951Z,25.10
2023-04-07T12:09:15.965Z,27.50
2023-04-07T12:10:15.942Z,25.60
2023-04-07T12:11:15.937Z,26.50
2023-04-07T12:12:15.933Z,24.00
2023-04-07T12:13:15.939Z,27.00
2023-04-07T12:14:15.923Z,28.60
2023-04-07T12:15:15.914Z,27.50
2023-04-07T12:16:15.973Z,28.20
2023-04-07T12:17:15.911Z,29.10
2023-04-07T12:18:15.909Z,29.10
2023-04-07T12:19:15.897Z,29.40
2023-04-07T12:20:15.895Z,29.70
2023-04-07T12:21:15.895Z,26.60
2023-04-07T12:22:15.892Z,30.50
2023-04-07T12:23:15.880Z,29.10
2023-04-07T12:24:15.874Z,29.70
2023-04-07T12:25:15.901Z,29.50
2023-04-07T12:26:15.864Z,29.50
2023-04-07T12:27:15.856Z,28.80
2023-04-07T12:28:15.864Z,28.70
2023-04-07T12:29:15.846Z,26.20
2023-04-07T12:30:15.843Z,27.60
2023-04-07T12:31:15.836Z,26.30
2023-04-07T12:32:16.005Z,29.50
2023-04-07T12:33:15.833Z,29.90
2023-04-07T12:34:15.824Z,28.00
2023-04-07T12:35:15.820Z,24.70
2023-04-07T12:36:15.816Z,26.10
2023-04-07T12:37:15.811Z,27.10
2023-04-07T12:38:15.805Z,27.40
2023-04-07T12:39:15.808Z,27.80
2023-04-07T12:40:15.794Z,28.20
2023-04-07T12:41:15.819Z,25.70
2023-04-07T12:42:15.789Z,26.30
2023-04-07T12:43:15.785Z,27.00
2023-04-07T12:44:15.787Z,27.70
2023-04-07T12:45:15.772Z,27.00
2023-04-07T12:46:15.788Z,24.00
2023-04-07T12:47:15.765Z,24.10
2023-04-07T12:48:15.761Z,25.40
2023-04-07T12:49:15.753Z,25.10
2023-04-07T12:50:15.753Z,25.80
2023-04-07T12:51:15.755Z,24.80
2023-04-07T12:52:15.739Z,25.10
2023-04-07T12:53:15.749Z,26.40
2023-04-07T12:54:15.732Z,25.40